createdAt,value
2017-10-10T00:00:37.024Z,74.13
2017-10-10T00:03:03.325Z,74.56
2017-10-10T00:05:30.354Z,74.29
2017-10-10T00:07:56.727Z,74.42
2017-10-10T00:10:23.115Z,74.42
2017-10-10T00:12:49.466Z,73.91
2017-10-10T00:15:16.563Z,73.84
2017-10-10T00:17:42.873Z,75.32
2017-10-10T00:20:09.181Z,75.71
2017-10-10T00:22:36.237Z,75.68
2017-10-10T00:25:02.540Z,75.76
2017-10-10T00:27:28.830Z,75.66
2017-10-10T00:29:55.961Z,76.09
2017-10-10T00:32:22.293Z,76.14
2017-10-10T00:34:48.623Z,76.26
2017-10-10T00:37:14.926Z,75.56
2017-10-10T00:39:41.285Z,75.10
2017-10-10T00:42:07.611Z,75.33
2017-10-10T00:44:33.916Z,74.76
2017-10-10T00:47:00.957Z,75.56
2017-10-10T00:49:27.972Z,75.25
2017-10-10T00:51:54.320Z,74.85
2017-10-10T00:54:20.661Z,74.87
2017-10-10T00:56:46.953Z,74.94
2017-10-10T00:59:13.269Z,74.47
2017-10-10T01:01:39.592Z,74.61
2017-10-10T01:04:05.920Z,74.27
2017-10-10T01:06:32.270Z,74.56
2017-10-10T01:08:58.612Z,74.48
2017-10-10T01:11:24.939Z,74.19
2017-10-10T01:13:51.254Z,73.95
2017-10-10T01:16:17.630Z,74.04
2017-10-10T01:18:44.009Z,73.89
2017-10-10T01:21:10.338Z,73.66
2017-10-10T01:23:36.622Z,74.15
2017-10-10T01:26:02.953Z,73.77
2017-10-10T01:28:29.296Z,73.75
2017-10-10T01:30:55.627Z,73.91
2017-10-10T01:33:21.897Z,73.74
2017-10-10T01:35:48.209Z,74.13
2017-10-10T01:38:15.220Z,74.15
2017-10-10T01:40:41.547Z,74.16
2017-10-10T01:43:07.878Z,74.28
2017-10-10T01:45:34.228Z,74.63
2017-10-10T01:48:00.548Z,74.56
2017-10-10T01:50:26.863Z,74.56
2017-10-10T01:52:53.175Z,74.81
2017-10-10T01:55:19.503Z,74.92
2017-10-10T01:57:45.889Z,75.47
2017-10-10T02:00:12.245Z,75.60
2017-10-10T02:02:39.252Z,75.21
2017-10-10T02:05:05.644Z,75.13
2017-10-10T02:07:31.945Z,75.20
2017-10-10T02:09:59.074Z,75.20
2017-10-10T02:12:25.378Z,75.90
2017-10-10T02:14:51.730Z,76.04
2017-10-10T02:17:18.017Z,76.35
2017-10-10T02:19:44.476Z,76.44
2017-10-10T02:22:10.806Z,76.43
2017-10-10T02:24:37.117Z,76.63
2017-10-10T02:27:03.450Z,76.83
2017-10-10T02:29:29.764Z,77.43
2017-10-10T02:31:56.086Z,77.39
2017-10-10T02:34:22.389Z,76.97
2017-10-10T02:36:49.543Z,77.33
2017-10-10T02:39:16.551Z,78.48
2017-10-10T02:41:42.966Z,78.46
2017-10-10T02:44:09.326Z,79.28
2017-10-10T02:46:35.635Z,79.54
2017-10-10T02:49:01.978Z,79.33
2017-10-10T02:51:28.362Z,79.11
2017-10-10T02:53:55.465Z,78.97
2017-10-10T02:56:21.838Z,79.10
2017-10-10T02:58:48.194Z,79.50
2017-10-10T03:01:14.557Z,79.63
2017-10-10T03:03:40.892Z,79.52
2017-10-10T03:06:07.207Z,79.36
2017-10-10T03:08:33.473Z,79.04
2017-10-10T03:11:00.570Z,78.83
2017-10-10T03:13:27.000Z,79.09
2017-10-10T03:15:53.385Z,78.76
2017-10-10T03:18:19.765Z,78.74
2017-10-10T03:20:46.169Z,78.71
2017-10-10T03:23:12.544Z,78.67
2017-10-10T03:25:38.904Z,78.86
2017-10-10T03:28:05.416Z,79.07
2017-10-10T03:30:31.785Z,78.90
2017-10-10T03:32:59.318Z,78.52
2017-10-10T03:35:25.692Z,78.91
2017-10-10T03:37:52.126Z,79.40
2017-10-10T03:40:19.154Z,78.97
2017-10-10T03:42:45.494Z,79.10
2017-10-10T03:45:11.784Z,78.63
2017-10-10T03:47:38.388Z,78.81
2017-10-10T03:50:05.450Z,78.64
2017-10-10T03:52:31.743Z,79.06
2017-10-10T03:54:58.098Z,79.28
2017-10-10T03:57:25.146Z,78.81
2017-10-10T03:59:52.351Z,78.71
2017-10-10T04:02:18.732Z,79.45
2017-10-10T04:04:45.047Z,79.25
2017-10-10T04:07:11.336Z,78.86
2017-10-10T04:09:37.672Z,79.02
2017-10-10T04:12:03.989Z,78.73
2017-10-10T04:14:30.287Z,79.43
2017-10-10T04:16:57.327Z,79.02
2017-10-10T04:19:23.713Z,80.12
2017-10-10T04:21:49.998Z,80.59
2017-10-10T04:24:24.013Z,80.11
2017-10-10T04:26:50.452Z,80.83
2017-10-10T04:29:16.802Z,81.14
2017-10-10T04:31:43.151Z,81.32
2017-10-10T04:34:09.539Z,81.31
2017-10-10T04:36:36.060Z,80.87
2017-10-10T04:39:03.549Z,80.48
2017-10-10T04:41:29.878Z,79.91
2017-10-10T04:43:56.208Z,80.61
2017-10-10T04:46:22.520Z,80.93
2017-10-10T04:48:49.692Z,80.99
2017-10-10T04:51:16.057Z,80.84
2017-10-10T04:53:42.420Z,80.08
2017-10-10T04:56:08.692Z,80.17
2017-10-10T04:58:35.025Z,81.11
2017-10-10T05:01:01.382Z,81.42
2017-10-10T05:03:27.670Z,81.35
2017-10-10T05:05:54.035Z,80.97
2017-10-10T05:08:21.068Z,81.05
2017-10-10T05:10:47.360Z,81.36
2017-10-10T05:13:14.437Z,80.69
2017-10-10T05:15:40.778Z,80.41
2017-10-10T05:18:07.085Z,80.17
2017-10-10T05:20:34.233Z,80.09
2017-10-10T05:23:01.265Z,80.37
2017-10-10T05:25:28.390Z,80.65
2017-10-10T05:27:54.718Z,80.75
2017-10-10T05:30:21.046Z,80.12
2017-10-10T05:32:47.410Z,79.73
2017-10-10T05:35:14.550Z,79.76
2017-10-10T05:37:40.844Z,80.34
2017-10-10T05:40:07.179Z,80.37
2017-10-10T05:42:33.586Z,80.37
2017-10-10T05:44:59.880Z,80.37
2017-10-10T05:47:26.166Z,79.48
2017-10-10T05:49:52.510Z,79.31
2017-10-10T05:52:18.842Z,79.58
2017-10-10T05:54:45.166Z,79.71
2017-10-10T05:57:11.505Z,79.66
2017-10-10T05:59:37.832Z,79.60
2017-10-10T06:02:04.241Z,79.49
2017-10-10T06:04:30.630Z,79.33
2017-10-10T06:06:56.961Z,78.81
2017-10-10T06:09:23.379Z,78.36
2017-10-10T06:11:49.711Z,78.46
2017-10-10T06:14:16.796Z,77.96
2017-10-10T06:16:43.945Z,78.07
2017-10-10T06:19:11.023Z,78.68
2017-10-10T06:21:37.375Z,77.97
2017-10-10T06:24:03.703Z,78.13
2017-10-10T06:26:30.037Z,78.04
2017-10-10T06:28:57.084Z,77.64
2017-10-10T06:31:23.420Z,76.99
2017-10-10T06:33:49.797Z,77.02
2017-10-10T06:36:16.893Z,77.04
2017-10-10T06:38:43.299Z,77.60
2017-10-10T06:41:09.619Z,77.27
2017-10-10T06:43:35.933Z,77.40
2017-10-10T06:46:02.999Z,77.66
2017-10-10T06:48:29.389Z,78.08
2017-10-10T06:50:55.845Z,78.10
2017-10-10T06:53:22.896Z,77.92
2017-10-10T06:55:50.023Z,77.61
2017-10-10T06:58:17.084Z,77.89
2017-10-10T07:00:44.253Z,77.22
2017-10-10T07:03:11.393Z,76.76
2017-10-10T07:05:38.521Z,76.07
2017-10-10T07:08:04.943Z,76.95
2017-10-10T07:10:31.358Z,77.75
2017-10-10T07:12:57.780Z,78.07
2017-10-10T07:15:24.119Z,77.44
2017-10-10T07:17:50.399Z,77.43
2017-10-10T07:20:16.726Z,76.44
2017-10-10T07:22:42.989Z,77.60
2017-10-10T07:25:09.279Z,78.55
2017-10-10T07:27:36.011Z,78.17
2017-10-10T07:30:02.364Z,77.55
2017-10-10T07:32:28.670Z,76.90
2017-10-10T07:34:55.065Z,75.84
2017-10-10T07:37:21.361Z,76.78
2017-10-10T07:39:48.418Z,76.16
2017-10-10T07:42:15.430Z,75.89
2017-10-10T07:44:41.754Z,75.02
2017-10-10T07:47:08.129Z,73.72
2017-10-10T07:49:35.310Z,74.04
2017-10-10T07:52:01.784Z,74.80
2017-10-10T07:54:28.110Z,75.48
2017-10-10T07:56:54.446Z,74.91
2017-10-10T07:59:20.799Z,76.06
2017-10-10T08:01:47.880Z,75.00
2017-10-10T08:04:14.483Z,74.95
2017-10-10T08:06:41.519Z,74.86
2017-10-10T08:09:07.855Z,74.50
2017-10-10T08:11:34.148Z,73.78
2017-10-10T08:14:00.457Z,71.91
2017-10-10T08:16:26.781Z,72.11
2017-10-10T08:18:53.281Z,71.72
2017-10-10T08:21:20.399Z,72.68
2017-10-10T08:23:46.729Z,72.92
2017-10-10T08:26:13.891Z,72.71
2017-10-10T08:28:40.222Z,71.91
2017-10-10T08:31:06.627Z,71.09
2017-10-10T08:33:32.998Z,69.67
2017-10-10T08:36:00.266Z,68.93
2017-10-10T08:38:26.644Z,69.64
2017-10-10T08:40:53.006Z,71.74
2017-10-10T08:43:19.731Z,70.93
2017-10-10T08:45:46.022Z,69.65
2017-10-10T08:48:13.056Z,66.19
2017-10-10T08:50:40.101Z,67.22
2017-10-10T08:53:06.453Z,67.25
2017-10-10T08:55:32.859Z,67.30
2017-10-10T08:57:59.183Z,68.58
2017-10-10T09:00:25.508Z,67.60
2017-10-10T09:02:51.818Z,67.74
2017-10-10T09:05:18.276Z,68.89
2017-10-10T09:07:44.683Z,67.70
2017-10-10T09:10:11.103Z,66.98
2017-10-10T09:12:37.486Z,67.10
2017-10-10T09:15:04.584Z,66.31
2017-10-10T09:17:31.141Z,66.22
2017-10-10T09:19:57.582Z,64.87
2017-10-10T09:22:23.887Z,64.48
2017-10-10T09:24:50.301Z,64.41
2017-10-10T09:27:16.712Z,64.00
2017-10-10T09:29:43.084Z,65.80
2017-10-10T09:32:09.422Z,65.54
2017-10-10T09:34:35.824Z,66.05
2017-10-10T09:37:02.574Z,65.20
2017-10-10T09:39:28.935Z,63.38
2017-10-10T09:41:55.225Z,62.63
2017-10-10T09:44:21.564Z,63.21
2017-10-10T09:46:47.999Z,63.23
2017-10-10T09:49:14.347Z,62.49
2017-10-10T09:51:40.809Z,60.55
2017-10-10T09:54:07.163Z,60.32
2017-10-10T09:56:34.238Z,60.58
2017-10-10T09:59:00.590Z,61.14
2017-10-10T10:01:26.932Z,61.62
2017-10-10T10:03:53.289Z,62.89
2017-10-10T10:06:19.644Z,63.47
2017-10-10T10:08:46.699Z,62.57
2017-10-10T10:11:13.867Z,63.76
2017-10-10T10:13:40.200Z,63.42
2017-10-10T10:16:07.425Z,64.37
2017-10-10T10:18:34.671Z,65.89
2017-10-10T10:21:01.708Z,67.08
2017-10-10T10:23:28.026Z,66.79
2017-10-10T10:25:54.326Z,67.52
2017-10-10T10:28:20.643Z,67.41
2017-10-10T10:30:46.926Z,66.40
2017-10-10T10:33:13.234Z,64.75
2017-10-10T10:35:39.575Z,64.93
2017-10-10T10:38:05.940Z,66.56
2017-10-10T10:40:32.966Z,66.02
2017-10-10T10:42:59.293Z,66.47
2017-10-10T10:45:25.597Z,65.85
2017-10-10T10:47:51.917Z,65.66
2017-10-10T10:52:51.171Z,64.86
2017-10-10T10:55:17.526Z,63.61
2017-10-10T10:57:43.875Z,63.36
2017-10-10T11:00:10.300Z,63.23
2017-10-10T11:02:37.600Z,63.34
2017-10-10T11:05:04.048Z,62.75
2017-10-10T11:07:30.446Z,61.69
2017-10-10T11:09:56.785Z,62.09
2017-10-10T11:12:23.103Z,61.69
2017-10-10T11:14:49.381Z,62.58
2017-10-10T11:17:15.695Z,61.04
2017-10-10T11:19:42.198Z,58.92
2017-10-10T11:22:08.572Z,58.22
2017-10-10T11:24:34.870Z,59.03
2017-10-10T11:27:01.244Z,58.14
2017-10-10T11:29:27.624Z,58.41
2017-10-10T11:31:54.037Z,59.59
2017-10-10T11:34:20.330Z,59.66
2017-10-10T11:36:46.649Z,60.49
2017-10-10T11:39:12.952Z,62.06
2017-10-10T11:41:39.230Z,62.60
2017-10-10T11:44:05.517Z,63.06
2017-10-10T11:46:31.888Z,63.01
2017-10-10T11:48:58.229Z,62.86
2017-10-10T11:51:24.573Z,60.23
2017-10-10T11:53:50.869Z,60.07
2017-10-10T11:56:17.393Z,59.93
2017-10-10T11:58:43.740Z,58.80
2017-10-10T12:01:10.052Z,57.66
2017-10-10T12:03:36.368Z,55.04
2017-10-10T12:06:02.670Z,54.19
2017-10-10T12:08:29.767Z,54.31
2017-10-10T12:10:56.089Z,54.83
2017-10-10T12:13:22.384Z,54.54
2017-10-10T12:15:49.431Z,54.64
2017-10-10T12:18:16.445Z,48.32
2017-10-10T12:20:42.794Z,47.19
2017-10-10T12:23:09.116Z,48.00
2017-10-10T12:25:35.418Z,49.30
2017-10-10T12:28:01.809Z,47.59
2017-10-10T12:30:28.142Z,43.77
2017-10-10T12:32:55.378Z,45.37
2017-10-10T12:35:22.509Z,48.87
2017-10-10T12:37:48.906Z,49.98
2017-10-10T12:40:15.246Z,51.25
2017-10-10T12:42:41.713Z,51.47
2017-10-10T12:45:08.100Z,52.17
2017-10-10T12:47:34.547Z,53.12
2017-10-10T12:50:00.895Z,54.78
2017-10-10T12:52:27.245Z,55.02
2017-10-10T12:54:53.625Z,55.08
2017-10-10T12:57:19.904Z,56.25
2017-10-10T12:59:46.306Z,56.30
2017-10-10T13:02:12.891Z,57.55
2017-10-10T13:04:39.257Z,56.99
2017-10-10T13:07:05.590Z,55.97
2017-10-10T13:09:31.951Z,57.01
2017-10-10T13:11:58.360Z,58.57
2017-10-10T13:14:24.764Z,57.22
2017-10-10T13:16:51.879Z,58.95
2017-10-10T13:19:18.180Z,59.60
2017-10-10T13:21:44.514Z,59.51
2017-10-10T13:24:10.951Z,59.10
2017-10-10T13:26:37.258Z,58.31
2017-10-10T13:29:03.635Z,59.14
2017-10-10T13:31:29.963Z,59.88
2017-10-10T13:33:56.362Z,60.74
2017-10-10T13:36:22.800Z,60.36
2017-10-10T13:38:49.136Z,60.30
2017-10-10T13:41:15.469Z,60.92
2017-10-10T13:43:41.877Z,60.61
2017-10-10T13:46:08.977Z,60.67
2017-10-10T13:48:35.338Z,60.51
2017-10-10T13:51:01.674Z,58.61
2017-10-10T13:53:28.738Z,57.77
2017-10-10T13:55:55.897Z,58.00
2017-10-10T13:58:22.295Z,57.33
2017-10-10T14:00:48.696Z,55.16
2017-10-10T14:03:15.017Z,52.11
2017-10-10T14:05:41.331Z,51.11
2017-10-10T14:08:07.729Z,54.16
2017-10-10T14:10:34.145Z,56.04
2017-10-10T14:13:00.648Z,57.96
2017-10-10T14:15:26.981Z,59.20
2017-10-10T14:17:53.285Z,59.07
2017-10-10T14:20:19.689Z,59.94
2017-10-10T14:22:46.045Z,60.06
2017-10-10T14:25:13.146Z,61.07
2017-10-10T14:27:39.533Z,61.05
2017-10-10T14:30:05.898Z,61.08
2017-10-10T14:32:32.193Z,61.44
2017-10-10T14:34:58.550Z,61.63
2017-10-10T14:37:25.741Z,61.84
2017-10-10T14:39:52.049Z,61.73
2017-10-10T14:42:18.371Z,61.92
2017-10-10T14:44:44.701Z,61.81
2017-10-10T14:47:11.087Z,63.58
2017-10-10T14:49:38.308Z,64.92
2017-10-10T14:52:04.632Z,65.61
2017-10-10T14:54:31.042Z,67.12
2017-10-10T14:56:57.350Z,67.57
2017-10-10T14:59:23.682Z,68.06
2017-10-10T15:01:50.039Z,69.95
2017-10-10T15:04:16.342Z,70.35
2017-10-10T15:06:42.756Z,71.00
2017-10-10T15:09:09.868Z,71.58
2017-10-10T15:11:36.203Z,72.16
2017-10-10T15:14:02.573Z,73.57
2017-10-10T15:16:28.905Z,73.28
2017-10-10T15:18:56.028Z,72.95
2017-10-10T15:21:22.461Z,73.02
2017-10-10T15:23:48.765Z,73.02
2017-10-10T15:26:15.133Z,74.07
2017-10-10T15:28:42.298Z,74.66
2017-10-10T15:31:09.404Z,74.35
2017-10-10T15:33:35.930Z,73.98
2017-10-10T15:36:02.305Z,74.42
2017-10-10T15:38:28.813Z,74.47
2017-10-10T15:40:55.460Z,74.07
2017-10-10T15:43:22.428Z,74.69
2017-10-10T15:45:49.094Z,73.95
2017-10-10T15:48:15.542Z,74.77
2017-10-10T15:50:42.068Z,74.83
2017-10-10T15:53:08.599Z,74.41
2017-10-10T15:55:34.950Z,74.32
2017-10-10T15:58:01.373Z,74.13
2017-10-10T16:00:27.867Z,74.58
2017-10-10T16:02:54.256Z,74.73
2017-10-10T16:05:20.649Z,74.90
2017-10-10T16:07:47.673Z,75.00
2017-10-10T16:10:14.111Z,75.31
2017-10-10T16:12:40.582Z,75.18
2017-10-10T16:15:07.293Z,75.00
2017-10-10T16:17:33.653Z,74.87
2017-10-10T16:20:00.050Z,74.79
2017-10-10T16:22:27.244Z,74.77
2017-10-10T16:24:53.581Z,74.45
2017-10-10T16:27:20.069Z,74.59
2017-10-10T16:29:46.373Z,74.70
2017-10-10T16:32:12.681Z,74.64
2017-10-10T16:34:39.022Z,74.93
2017-10-10T16:37:05.401Z,75.08
2017-10-10T16:39:31.716Z,75.24
2017-10-10T16:41:58.054Z,75.15
2017-10-10T16:44:25.204Z,75.62
2017-10-10T16:46:51.582Z,75.89
2017-10-10T16:49:17.967Z,75.97
2017-10-10T16:51:44.330Z,75.78
2017-10-10T16:54:10.669Z,76.03
2017-10-10T16:56:37.134Z,76.17
2017-10-10T16:59:03.738Z,76.03
2017-10-10T17:01:31.012Z,76.22
2017-10-10T17:03:57.430Z,75.97
2017-10-10T17:06:23.854Z,76.00
2017-10-10T17:08:50.409Z,76.09
2017-10-10T17:11:16.734Z,76.20
2017-10-10T17:13:43.121Z,76.26
2017-10-10T17:16:09.507Z,76.54
2017-10-10T17:18:35.886Z,76.74
2017-10-10T17:21:02.547Z,76.63
2017-10-10T17:23:29.670Z,76.52
2017-10-10T17:25:55.993Z,76.35
2017-10-10T17:28:22.401Z,76.21
2017-10-10T17:30:49.642Z,75.81
2017-10-10T17:33:16.063Z,75.67
2017-10-10T17:35:42.457Z,75.96
2017-10-10T17:38:08.793Z,75.99
2017-10-10T17:40:36.158Z,75.69
2017-10-10T17:43:03.238Z,75.48
2017-10-10T17:45:29.642Z,75.56
2017-10-10T17:47:56.699Z,75.43
2017-10-10T17:50:23.085Z,75.21
2017-10-10T17:52:49.601Z,75.06
2017-10-10T17:55:16.197Z,74.89
2017-10-10T17:57:43.321Z,74.59
2017-10-10T18:00:09.675Z,74.56
2017-10-10T18:02:36.775Z,74.26
2017-10-10T18:05:03.400Z,74.10
2017-10-10T18:07:29.793Z,73.87
2017-10-10T18:09:56.344Z,73.23
2017-10-10T18:12:23.732Z,73.66
2017-10-10T18:14:50.241Z,73.73
2017-10-10T18:17:16.806Z,73.92
2017-10-10T18:19:43.225Z,73.41
2017-10-10T18:22:09.557Z,73.59
2017-10-10T18:24:35.844Z,73.15
2017-10-10T18:27:02.351Z,72.73
2017-10-10T18:29:28.805Z,72.64
2017-10-10T18:31:56.104Z,72.59
2017-10-10T18:34:28.833Z,72.71
2017-10-10T18:36:55.363Z,72.96
2017-10-10T18:39:21.877Z,72.75
2017-10-10T18:41:48.340Z,72.33
2017-10-10T18:44:15.243Z,72.33
2017-10-10T18:46:41.627Z,72.49
2017-10-10T18:49:08.050Z,72.34
2017-10-10T18:51:34.525Z,71.78
2017-10-10T18:54:00.996Z,71.85
2017-10-10T18:56:28.370Z,72.01
2017-10-10T18:58:54.741Z,71.52
2017-10-10T19:01:21.827Z,71.28
2017-10-10T19:03:48.575Z,71.25
2017-10-10T19:06:14.923Z,70.86
2017-10-10T19:08:42.413Z,70.93
2017-10-10T19:11:09.614Z,70.88
2017-10-10T19:13:35.989Z,71.09
2017-10-10T19:16:02.512Z,71.28
2017-10-10T19:18:29.647Z,70.51
2017-10-10T19:20:56.047Z,70.91
2017-10-10T19:23:22.399Z,71.84
2017-10-10T19:25:48.817Z,72.15
2017-10-10T19:28:15.117Z,71.98
2017-10-10T19:30:42.374Z,73.48
2017-10-10T19:33:08.978Z,73.85
2017-10-10T19:35:35.496Z,74.05
2017-10-10T19:38:01.979Z,74.26
2017-10-10T19:40:29.080Z,74.03
2017-10-10T19:42:55.554Z,74.07
2017-10-10T19:45:21.976Z,73.70
2017-10-10T19:47:48.439Z,73.20
2017-10-10T19:50:14.822Z,72.99
2017-10-10T19:52:41.150Z,73.21
2017-10-10T19:55:07.555Z,72.92
2017-10-10T19:57:34.012Z,71.85
2017-10-10T20:00:00.369Z,71.52
2017-10-10T20:02:26.723Z,70.93
2017-10-10T20:04:53.811Z,70.94
2017-10-10T20:07:20.150Z,70.93
2017-10-10T20:09:46.580Z,70.46
2017-10-10T20:12:12.995Z,70.51
2017-10-10T20:14:39.349Z,70.63
2017-10-10T20:17:05.621Z,70.65
2017-10-10T20:19:32.129Z,70.91
2017-10-10T20:21:58.546Z,71.15
2017-10-10T20:24:24.919Z,71.81
2017-10-10T20:26:52.031Z,72.76
2017-10-10T20:29:18.463Z,73.35
2017-10-10T20:31:44.796Z,73.79
2017-10-10T20:34:11.231Z,74.58
2017-10-10T20:36:37.572Z,74.96
2017-10-10T20:39:04.068Z,75.37
2017-10-10T20:41:30.645Z,74.70
2017-10-10T20:43:57.173Z,74.85
2017-10-10T20:46:23.605Z,75.24
2017-10-10T20:48:50.000Z,75.23
2017-10-10T20:51:16.420Z,75.53
2017-10-10T20:53:43.460Z,75.40
2017-10-10T20:56:10.564Z,75.48
2017-10-10T20:58:40.377Z,75.34
2017-10-10T21:01:06.713Z,74.71
2017-10-10T21:03:33.126Z,74.38
2017-10-10T21:05:59.484Z,73.84
2017-10-10T21:08:26.006Z,73.63
2017-10-10T21:10:52.385Z,73.42
2017-10-10T21:13:18.896Z,73.69
2017-10-10T21:15:45.260Z,73.91
2017-10-10T21:18:12.551Z,73.93
2017-10-10T21:20:39.025Z,73.86
2017-10-10T21:23:06.232Z,74.39
2017-10-10T21:25:32.601Z,74.35
2017-10-10T21:27:59.096Z,74.15
2017-10-10T21:30:25.353Z,74.50
2017-10-10T21:32:51.672Z,74.24
2017-10-10T21:35:18.057Z,73.80
2017-10-10T21:37:45.254Z,73.48
2017-10-10T21:40:11.631Z,73.98
2017-10-10T21:42:38.032Z,74.02
2017-10-10T21:45:04.402Z,73.80
2017-10-10T21:47:31.598Z,73.57
2017-10-10T21:49:58.006Z,73.48
2017-10-10T21:52:24.411Z,73.77
2017-10-10T21:54:51.213Z,74.59
2017-10-10T21:57:18.362Z,74.81
2017-10-10T21:59:44.943Z,75.14
2017-10-10T22:02:11.432Z,75.32
2017-10-10T22:04:37.976Z,76.05
2017-10-10T22:07:05.402Z,76.10
2017-10-10T22:09:31.789Z,76.62
2017-10-10T22:11:58.182Z,76.28
2017-10-10T22:14:24.726Z,75.73
2017-10-10T22:16:51.159Z,75.86
2017-10-10T22:19:17.520Z,75.72
2017-10-10T22:21:43.844Z,76.00
2017-10-10T22:24:10.214Z,75.37
2017-10-10T22:26:37.418Z,75.03
2017-10-10T22:29:03.844Z,74.61
2017-10-10T22:31:30.193Z,74.70
2017-10-10T22:33:56.497Z,74.49
2017-10-10T22:36:23.916Z,74.47
2017-10-10T22:38:50.997Z,74.45
2017-10-10T22:41:17.363Z,74.50
2017-10-10T22:43:43.782Z,74.65
2017-10-10T22:46:10.107Z,74.88
2017-10-10T22:48:36.553Z,74.77
2017-10-10T22:51:04.053Z,74.36
2017-10-10T22:53:31.110Z,74.42
2017-10-10T22:55:58.180Z,74.45
2017-10-10T22:58:24.730Z,74.85
2017-10-10T23:00:51.044Z,74.67
2017-10-10T23:03:17.417Z,75.03
2017-10-10T23:05:43.846Z,75.05
2017-10-10T23:08:10.116Z,75.09
2017-10-10T23:10:37.189Z,75.39
2017-10-10T23:13:03.832Z,75.29
2017-10-10T23:15:30.143Z,74.97
2017-10-10T23:17:57.204Z,74.57
2017-10-10T23:20:23.518Z,74.57
2017-10-10T23:22:49.896Z,74.71
2017-10-10T23:25:16.323Z,74.22
2017-10-10T23:27:42.748Z,74.24
2017-10-10T23:30:09.093Z,74.06
2017-10-10T23:32:35.374Z,74.27
2017-10-10T23:35:02.428Z,74.95
2017-10-10T23:37:29.508Z,74.25
2017-10-10T23:39:55.843Z,73.77
2017-10-10T23:42:22.160Z,73.39
2017-10-10T23:44:48.439Z,73.49
2017-10-10T23:47:14.725Z,72.65
2017-10-10T23:49:41.003Z,72.85
2017-10-10T23:52:07.354Z,72.65
2017-10-10T23:54:34.383Z,72.21
2017-10-10T23:57:01.479Z,71.95
2017-10-10T23:59:27.782Z,71.84
